UGSB

Batumi International Airport

Batumi, Georgia
TAF UGSB 212300Z 2200/2224 13020KT 9999 BKN100 TX10/2210Z TN06/2202Z BECMG 2206/2208 21007KT SCT030 TEMPO 2206/2215 23017KT SHRA SCT015 BKN025CB BECMG 2215/2217 13010KT
Issued Valid From Valid To
Jan-21 @ 23:00 UTC
(an hour ago)
Jan-22 @ 00:00 UTC
(9 minutes ago)
Jan-23 @ 00:00 UTC
(in 24 hours)
Jan-22 @ 00:00 to Jan-22 @ 06:00
TAF UGSB 212300Z 2200/2224 13020KT 9999 BKN100 TX10/2210Z TN06/2202Z
Wind Visibility Clouds
130° at 20 knots 10,000+ meters
  • Broken at 10,000' AGL
Becoming Jan-22 @ 06:00 to Jan-22 @ 15:00
BECMG 2206/2208 21007KT SCT030
Wind Visibility Clouds
210° at 7 knots 10,000+ meters
  • Scattered at 3,000' AGL
Temporary Jan-22 @ 06:00 to Jan-22 @ 15:00
TEMPO 2206/2215 23017KT SHRA SCT015 BKN025CB
Wind Clouds Conditions
230° at 17 knots
  • Scattered at 1,500' AGL
  • Broken at 2,500' AGL
  • Rain
Becoming Jan-22 @ 15:00 to Jan-23 @ 00:00
BECMG 2215/2217 13010KT
Wind Visibility Clouds
130° at 10 knots 10,000+ meters
  • Scattered at 3,000' AGL
TAF UGSB 212300Z 2200/2224 13020KT 9999 BKN100 TX10/2210Z TN06/2202Z BECMG 2206/2208 21007KT SCT030 TEMPO 2206/2215 23017KT SHRA SCT015 BKN025CB BECMG 2215/2217 13010KT
Issued Jan-21 @ 23:00 UTC
(an hour ago)
Valid From Jan-22 @ 00:00 UTC
(9 minutes ago)
Valid To Jan-23 @ 00:00 UTC
(in 24 hours)
Jan-22 @ 00:00 - Jan-22 @ 06:00
Wind Visibility
130° at 20 knots 10,000+ meters
Clouds
  • Broken at 10,000' AGL
Becoming Jan-22 @ 06:00 - Jan-22 @ 15:00
Wind Visibility
210° at 7 knots 10,000+ meters
Clouds
  • Scattered at 3,000' AGL
Temporary Jan-22 @ 06:00 - Jan-22 @ 15:00
Wind
230° at 17 knots
Clouds
  • Scattered at 1,500' AGL
  • Broken at 2,500' AGL
Conditions
  • Rain
Becoming Jan-22 @ 15:00 - Jan-23 @ 00:00
Wind Visibility
130° at 10 knots 10,000+ meters
Clouds
  • Scattered at 3,000' AGL